Time;durP1;ratioP1;P1;durP2;ratioP2;P2;SDS_P1;SDS_P2;PMS_P1;PMS_P2;Temp;Humidity;BMP_temperature;BMP_pressure;BME280_temperature;BME280_humidity;BME280_pressure;Samples;Min_cycle;Max_cycle;Signal;HPM_P1;HPM_P2
2021/12/28 00:01:02;;;;;;;3.58;2.45;;;;;;;;;;5106715;28;20059;-49
2021/12/28 00:03:27;;;;;;;3.40;2.38;;;;;;;;;;5105344;28;20032;-47
2021/12/28 00:05:53;;;;;;;3.10;2.47;;;;;;;;;;5104487;28;20506;-49
2021/12/28 00:08:19;;;;;;;4.40;2.70;;;;;;;;;;5104089;28;20028;-53
2021/12/28 00:10:45;;;;;;;4.38;3.00;;;;;;;;;;5099284;28;20027;-54
2021/12/28 00:13:10;;;;;;;3.60;1.98;;;;;;;;;;5094511;28;20457;-54
2021/12/28 00:15:48;;;;;;;3.30;2.30;;;;;;;;;;5106631;28;20020;-53
2021/12/28 00:18:14;;;;;;;3.20;1.92;;;;;;;;;;5100655;28;20024;-52
2021/12/28 00:20:44;;;;;;;2.80;2.03;;;;;;;;;;5104580;28;20036;-53
2021/12/28 00:23:15;;;;;;;4.82;2.65;;;;;;;;;;5109804;28;20028;-51
2021/12/28 00:25:41;;;;;;;3.33;2.20;;;;;;;;;;5082801;28;20049;-53
2021/12/28 00:28:06;;;;;;;2.72;2.30;;;;;;;;;;5074340;28;20035;-53
2021/12/28 00:30:31;;;;;;;3.92;2.13;;;;;;;;;;5095271;28;20032;-53
2021/12/28 00:32:57;;;;;;;4.60;2.63;;;;;;;;;;5082457;28;20031;-53
2021/12/28 00:35:23;;;;;;;3.03;2.20;;;;;;;;;;5105446;28;20055;-53
2021/12/28 00:37:49;;;;;;;2.97;1.95;;;;;;;;;;5109090;28;20024;-53
2021/12/28 00:40:14;;;;;;;2.90;2.10;;;;;;;;;;5108372;28;20028;-54
2021/12/28 00:42:39;;;;;;;3.75;2.60;;;;;;;;;;5108159;28;20735;-55
2021/12/28 00:45:05;;;;;;;2.90;2.30;;;;;;;;;;5090563;28;20035;-54
2021/12/28 00:47:30;;;;;;;2.97;2.00;;;;;;;;;;5108749;28;20035;-53
2021/12/28 00:49:56;;;;;;;3.30;2.10;;;;;;;;;;5109435;28;20499;-54
2021/12/28 00:52:22;;;;;;;4.63;2.10;;;;;;;;;;5107440;28;20468;-54
2021/12/28 00:54:47;;;;;;;3.88;2.50;;;;;;;;;;5111268;28;20066;-54
2021/12/28 00:57:12;;;;;;;2.88;2.25;;;;;;;;;;5113905;28;20031;-54
2021/12/28 00:59:37;;;;;;;4.38;2.10;;;;;;;;;;5113590;28;20085;-53
2021/12/28 01:02:03;;;;;;;3.97;2.15;;;;;;;;;;5114023;28;20082;-53
2021/12/28 01:04:28;;;;;;;2.78;1.95;;;;;;;;;;5107333;28;20108;-53
2021/12/28 01:06:53;;;;;;;2.97;2.20;;;;;;;;;;5094611;28;20036;-53
2021/12/28 01:09:18;;;;;;;2.95;2.28;;;;;;;;;;5094456;28;20044;-52
2021/12/28 01:11:44;;;;;;;4.95;2.45;;;;;;;;;;5093527;28;20419;-54
2021/12/28 01:14:09;;;;;;;4.63;2.85;;;;;;;;;;5095569;28;20066;-54
2021/12/28 01:16:34;;;;;;;2.50;2.13;;;;;;;;;;5106338;28;20032;-53
2021/12/28 01:19:00;;;;;;;3.55;2.78;;;;;;;;;;5111664;28;20024;-54
2021/12/28 01:21:25;;;;;;;3.08;2.15;;;;;;;;;;5104994;28;20032;-54
2021/12/28 01:23:50;;;;;;;5.03;2.58;;;;;;;;;;5085414;28;20023;-52
2021/12/28 01:26:15;;;;;;;5.75;2.42;;;;;;;;;;5104291;28;20024;-53
2021/12/28 01:28:40;;;;;;;3.35;2.50;;;;;;;;;;5102818;28;20038;-52
2021/12/28 01:31:06;;;;;;;3.80;2.53;;;;;;;;;;5104289;28;20032;-55
2021/12/28 01:33:31;;;;;;;4.10;2.20;;;;;;;;;;5103507;28;20499;-54
2021/12/28 01:35:56;;;;;;;3.75;2.35;;;;;;;;;;5103994;28;20085;-52
2021/12/28 01:38:22;;;;;;;5.63;2.20;;;;;;;;;;5102241;28;20102;-53
2021/12/28 01:40:47;;;;;;;4.28;2.42;;;;;;;;;;5103618;28;20356;-54
2021/12/28 01:43:14;;;;;;;2.25;1.92;;;;;;;;;;5103619;28;20488;-53
2021/12/28 01:45:44;;;;;;;3.53;2.30;;;;;;;;;;5102105;28;20153;-53
2021/12/28 01:48:11;;;;;;;2.55;2.05;;;;;;;;;;5103288;28;20554;-51
2021/12/28 01:50:36;;;;;;;6.22;2.92;;;;;;;;;;5104126;28;20024;-53
2021/12/28 01:53:02;;;;;;;3.92;2.00;;;;;;;;;;5102557;28;20521;-52
2021/12/28 01:55:28;;;;;;;5.70;3.38;;;;;;;;;;5103527;28;20028;-54
2021/12/28 01:57:53;;;;;;;3.38;2.55;;;;;;;;;;5103067;28;20032;-53
2021/12/28 02:00:19;;;;;;;4.18;2.40;;;;;;;;;;5102517;28;20112;-53
2021/12/28 02:02:44;;;;;;;3.92;2.50;;;;;;;;;;5103978;28;20031;-52
2021/12/28 02:05:09;;;;;;;4.50;2.40;;;;;;;;;;5103201;28;20015;-53
2021/12/28 02:07:34;;;;;;;3.00;2.05;;;;;;;;;;5100342;28;20119;-52
2021/12/28 02:10:00;;;;;;;2.55;2.05;;;;;;;;;;5104108;28;20028;-50
2021/12/28 02:12:28;;;;;;;3.10;2.15;;;;;;;;;;5101911;28;20062;-53
2021/12/28 02:14:53;;;;;;;3.80;2.15;;;;;;;;;;5102626;28;20031;-53
2021/12/28 02:17:18;;;;;;;5.00;2.28;;;;;;;;;;5100802;28;20066;-52
2021/12/28 02:19:45;;;;;;;4.47;2.22;;;;;;;;;;5103900;28;20032;-55
2021/12/28 02:22:10;;;;;;;3.45;2.03;;;;;;;;;;5102379;28;20020;-53
2021/12/28 02:24:35;;;;;;;4.82;2.03;;;;;;;;;;5102438;28;20510;-53
2021/12/28 02:27:01;;;;;;;8.45;2.88;;;;;;;;;;5103494;28;20115;-53
2021/12/28 02:29:27;;;;;;;4.30;2.15;;;;;;;;;;5098775;28;20024;-52
2021/12/28 02:31:55;;;;;;;4.20;2.15;;;;;;;;;;5103549;28;20019;-52
2021/12/28 02:34:23;;;;;;;4.28;2.65;;;;;;;;;;5103219;28;20496;-52
2021/12/28 02:36:48;;;;;;;3.55;1.92;;;;;;;;;;5099085;28;20119;-52
2021/12/28 02:39:14;;;;;;;3.40;2.03;;;;;;;;;;5102412;28;20444;-52
2021/12/28 02:41:39;;;;;;;4.55;2.28;;;;;;;;;;5103121;28;20058;-54
2021/12/28 02:44:04;;;;;;;3.28;2.58;;;;;;;;;;5101747;28;20377;-51
2021/12/28 02:46:30;;;;;;;4.38;2.15;;;;;;;;;;5102737;28;20395;-54
2021/12/28 02:48:55;;;;;;;6.05;1.98;;;;;;;;;;5102200;28;20042;-54
2021/12/28 02:51:20;;;;;;;2.95;2.05;;;;;;;;;;5101372;28;20085;-54
2021/12/28 02:53:46;;;;;;;5.30;2.30;;;;;;;;;;5103439;28;20441;-54
2021/12/28 02:56:13;;;;;;;3.13;1.42;;;;;;;;;;5101679;28;20103;-52
2021/12/28 02:58:39;;;;;;;4.10;1.70;;;;;;;;;;5101627;28;20055;-53
2021/12/28 03:01:14;;;;;;;4.43;2.03;;;;;;;;;;5101189;28;20488;-54
2021/12/28 03:03:39;;;;;;;5.82;1.80;;;;;;;;;;5102799;28;20036;-53
2021/12/28 03:06:06;;;;;;;5.18;1.70;;;;;;;;;;5100898;28;20032;-54
2021/12/28 03:08:32;;;;;;;3.60;2.35;;;;;;;;;;5100628;28;20036;-54
2021/12/28 03:10:58;;;;;;;3.03;1.90;;;;;;;;;;5102359;28;20102;-54
2021/12/28 03:13:25;;;;;;;3.10;1.88;;;;;;;;;;5102697;28;20136;-52
2021/12/28 03:15:50;;;;;;;4.47;2.15;;;;;;;;;;5097893;28;20028;-52
2021/12/28 03:18:16;;;;;;;3.53;1.90;;;;;;;;;;5101855;28;20035;-52
2021/12/28 03:20:41;;;;;;;2.80;1.80;;;;;;;;;;5101245;28;20031;-51
2021/12/28 03:23:07;;;;;;;3.88;2.15;;;;;;;;;;5103533;28;20020;-53
2021/12/28 03:25:32;;;;;;;4.78;2.47;;;;;;;;;;5101187;28;20035;-53
2021/12/28 03:27:57;;;;;;;2.92;1.70;;;;;;;;;;5101684;28;20240;-52
2021/12/28 03:30:23;;;;;;;5.68;1.98;;;;;;;;;;5102448;28;20039;-54
2021/12/28 03:32:48;;;;;;;7.38;2.70;;;;;;;;;;5101031;28;20040;-55
2021/12/28 03:35:15;;;;;;;3.60;2.00;;;;;;;;;;5102471;28;20478;-51
2021/12/28 03:37:40;;;;;;;3.83;2.05;;;;;;;;;;5102321;28;20154;-52
2021/12/28 03:40:07;;;;;;;6.65;2.10;;;;;;;;;;5100739;28;20067;-52
2021/12/28 03:42:32;;;;;;;6.22;2.00;;;;;;;;;;5094527;28;20016;-53
2021/12/28 03:44:57;;;;;;;3.85;2.10;;;;;;;;;;5083458;28;20553;-52
2021/12/28 03:47:23;;;;;;;2.55;1.67;;;;;;;;;;5103580;28;20095;-52
2021/12/28 03:49:48;;;;;;;4.10;1.85;;;;;;;;;;5101083;28;20008;-53
2021/12/28 03:52:13;;;;;;;3.75;1.95;;;;;;;;;;5102433;28;20034;-52
2021/12/28 03:54:38;;;;;;;3.03;1.80;;;;;;;;;;5099879;28;20407;-53
2021/12/28 03:57:04;;;;;;;3.53;1.98;;;;;;;;;;5102113;28;20416;-53
2021/12/28 03:59:29;;;;;;;3.38;2.22;;;;;;;;;;5100713;28;20019;-53
2021/12/28 04:01:55;;;;;;;3.25;2.20;;;;;;;;;;5101528;28;20032;-53
2021/12/28 04:04:20;;;;;;;3.53;1.70;;;;;;;;;;5104728;28;20066;-52
2021/12/28 04:06:45;;;;;;;3.80;1.98;;;;;;;;;;5095562;28;20032;-53
2021/12/28 04:09:12;;;;;;;2.72;1.63;;;;;;;;;;5095037;28;20396;-53
2021/12/28 04:11:37;;;;;;;3.20;1.83;;;;;;;;;;5095630;28;20400;-52
2021/12/28 04:14:05;;;;;;;6.85;1.90;;;;;;;;;;5095888;28;20031;-53
2021/12/28 04:16:30;;;;;;;3.20;1.90;;;;;;;;;;5095194;28;20024;-53
2021/12/28 04:18:56;;;;;;;2.97;1.98;;;;;;;;;;5094889;28;20491;-54
2021/12/28 04:21:22;;;;;;;2.42;1.60;;;;;;;;;;5095065;28;20043;-54
2021/12/28 04:23:47;;;;;;;2.55;1.50;;;;;;;;;;5095707;28;20058;-53
2021/12/28 04:26:12;;;;;;;2.83;1.50;;;;;;;;;;5095092;28;20085;-54
2021/12/28 04:28:38;;;;;;;3.25;2.45;;;;;;;;;;5095098;28;20024;-53
2021/12/28 04:31:03;;;;;;;4.72;1.90;;;;;;;;;;5094952;28;20036;-53
2021/12/28 04:33:28;;;;;;;4.65;1.80;;;;;;;;;;5094898;28;20047;-53
2021/12/28 04:35:54;;;;;;;3.13;1.70;;;;;;;;;;5095289;28;20036;-54
2021/12/28 04:38:19;;;;;;;4.90;1.77;;;;;;;;;;5094583;28;20036;-52
2021/12/28 04:40:44;;;;;;;2.55;1.80;;;;;;;;;;5095211;28;20055;-54
2021/12/28 04:43:11;;;;;;;5.25;1.95;;;;;;;;;;5094791;28;20040;-53
2021/12/28 04:45:37;;;;;;;6.47;2.30;;;;;;;;;;5094974;28;20496;-52
2021/12/28 04:48:04;;;;;;;4.22;1.40;;;;;;;;;;5094541;28;20024;-54
2021/12/28 04:50:29;;;;;;;4.82;1.70;;;;;;;;;;5092808;28;20043;-53
2021/12/28 04:52:57;;;;;;;2.92;1.63;;;;;;;;;;5094898;28;20381;-54
2021/12/28 04:55:22;;;;;;;3.90;1.75;;;;;;;;;;5094475;28;20028;-55
2021/12/28 04:57:48;;;;;;;3.25;1.52;;;;;;;;;;5094679;28;20392;-55
2021/12/28 05:00:18;;;;;;;6.53;2.17;;;;;;;;;;5094843;28;20043;-53
2021/12/28 05:02:43;;;;;;;2.45;1.63;;;;;;;;;;5090202;28;20032;-55
2021/12/28 05:05:09;;;;;;;3.80;1.83;;;;;;;;;;5094838;28;20028;-52
2021/12/28 05:07:34;;;;;;;3.95;2.05;;;;;;;;;;5093678;28;20056;-53
2021/12/28 05:10:00;;;;;;;3.67;2.00;;;;;;;;;;5093790;28;20059;-53
2021/12/28 05:12:26;;;;;;;2.80;1.45;;;;;;;;;;5093850;28;20074;-54
2021/12/28 05:14:51;;;;;;;2.95;1.70;;;;;;;;;;5093000;28;20496;-53
2021/12/28 05:17:16;;;;;;;2.20;1.55;;;;;;;;;;5094004;28;20016;-54
2021/12/28 05:19:42;;;;;;;2.88;1.70;;;;;;;;;;5093565;28;20059;-54
2021/12/28 05:22:08;;;;;;;2.95;1.58;;;;;;;;;;5074159;28;20025;-53
2021/12/28 05:24:34;;;;;;;4.72;2.47;;;;;;;;;;5073857;28;20029;-54
2021/12/28 05:26:59;;;;;;;2.45;1.58;;;;;;;;;;5079739;28;20027;-54
2021/12/28 05:29:24;;;;;;;6.75;2.10;;;;;;;;;;5109118;28;20051;-55
2021/12/28 05:31:50;;;;;;;4.82;1.58;;;;;;;;;;5114784;28;20432;-55
2021/12/28 05:34:15;;;;;;;2.88;1.50;;;;;;;;;;5114129;28;20047;-55
2021/12/28 05:36:40;;;;;;;2.83;1.58;;;;;;;;;;5114170;28;20047;-55
2021/12/28 05:39:05;;;;;;;3.17;1.55;;;;;;;;;;5113998;28;20027;-55
2021/12/28 05:41:31;;;;;;;2.92;1.52;;;;;;;;;;5113899;28;20070;-54
2021/12/28 05:43:56;;;;;;;4.15;1.58;;;;;;;;;;5114568;28;20182;-55
2021/12/28 05:46:21;;;;;;;3.08;1.38;;;;;;;;;;5101869;27;20484;-56
2021/12/28 05:48:47;;;;;;;2.80;1.15;;;;;;;;;;5093124;28;20031;-58
2021/12/28 05:51:12;;;;;;;5.13;1.60;;;;;;;;;;5089254;28;20036;-56
2021/12/28 05:53:38;;;;;;;4.68;1.58;;;;;;;;;;5073022;28;20094;-56
2021/12/28 05:56:03;;;;;;;3.67;1.30;;;;;;;;;;5073782;28;20024;-56
2021/12/28 05:58:28;;;;;;;4.82;1.27;;;;;;;;;;5072702;28;21077;-57
2021/12/28 06:00:53;;;;;;;4.13;1.50;;;;;;;;;;5072932;28;20087;-56
2021/12/28 06:03:19;;;;;;;4.25;1.38;;;;;;;;;;5073206;28;20041;-56
2021/12/28 06:05:44;;;;;;;1.92;1.00;;;;;;;;;;5072866;28;20492;-57
2021/12/28 06:08:09;;;;;;;3.72;1.40;;;;;;;;;;5079394;28;20024;-57
2021/12/28 06:10:34;;;;;;;2.65;0.90;;;;;;;;;;5092854;28;20047;-57
2021/12/28 06:13:00;;;;;;;3.20;1.33;;;;;;;;;;5093422;28;20035;-57
2021/12/28 06:15:25;;;;;;;3.50;1.20;;;;;;;;;;5093030;28;20032;-57
2021/12/28 06:17:50;;;;;;;2.47;0.88;;;;;;;;;;5092853;28;20081;-57
2021/12/28 06:20:15;;;;;;;2.63;1.20;;;;;;;;;;5092282;28;20092;-57
2021/12/28 06:22:40;;;;;;;3.25;1.30;;;;;;;;;;5093567;28;20095;-57
2021/12/28 06:25:07;;;;;;;2.58;1.00;;;;;;;;;;5092907;28;20040;-57
2021/12/28 06:27:33;;;;;;;3.60;1.05;;;;;;;;;;5092745;28;20433;-57
2021/12/28 06:29:58;;;;;;;4.20;1.42;;;;;;;;;;5093190;28;20036;-57
2021/12/28 06:32:23;;;;;;;3.17;1.40;;;;;;;;;;5092696;28;20023;-58
2021/12/28 06:34:48;;;;;;;2.00;1.00;;;;;;;;;;5093435;28;20441;-57
2021/12/28 06:37:13;;;;;;;1.65;0.77;;;;;;;;;;5092695;28;20036;-57
2021/12/28 06:39:39;;;;;;;2.35;1.00;;;;;;;;;;5092397;28;20380;-57
2021/12/28 06:42:04;;;;;;;1.50;0.70;;;;;;;;;;5092423;28;20090;-57
2021/12/28 06:44:29;;;;;;;3.55;1.27;;;;;;;;;;5093027;28;20016;-56
2021/12/28 06:46:55;;;;;;;2.83;1.52;;;;;;;;;;5093339;28;20035;-56
2021/12/28 06:49:20;;;;;;;3.22;1.13;;;;;;;;;;5072610;28;20504;-57
2021/12/28 06:51:45;;;;;;;2.55;1.02;;;;;;;;;;5072597;28;20047;-57
2021/12/28 06:54:11;;;;;;;2.50;1.00;;;;;;;;;;5072276;28;20078;-57
2021/12/28 06:56:36;;;;;;;1.70;0.88;;;;;;;;;;5072311;28;20083;-57
2021/12/28 06:59:02;;;;;;;2.72;1.38;;;;;;;;;;5072726;28;20033;-57
2021/12/28 07:01:27;;;;;;;3.53;1.35;;;;;;;;;;5072374;28;20490;-57
2021/12/28 07:03:53;;;;;;;2.63;0.93;;;;;;;;;;5072315;28;20024;-57
2021/12/28 07:06:18;;;;;;;2.97;1.00;;;;;;;;;;5073464;28;20057;-61
2021/12/28 07:08:44;;;;;;;4.13;1.40;;;;;;;;;;5097549;28;20036;-58
2021/12/28 07:11:09;;;;;;;2.03;0.88;;;;;;;;;;5101610;28;20098;-57
2021/12/28 07:13:35;;;;;;;3.30;0.98;;;;;;;;;;5112874;28;20048;-58
2021/12/28 07:16:00;;;;;;;1.55;0.73;;;;;;;;;;5103588;28;20550;-58
2021/12/28 07:18:25;;;;;;;1.80;0.88;;;;;;;;;;5109487;28;20034;-57
2021/12/28 07:20:50;;;;;;;4.00;1.25;;;;;;;;;;5112316;28;20403;-58
2021/12/28 07:23:16;;;;;;;4.50;1.10;;;;;;;;;;5112367;28;20367;-58
2021/12/28 07:25:41;;;;;;;3.47;1.08;;;;;;;;;;5095263;28;20539;-58
2021/12/28 07:28:06;;;;;;;4.43;1.02;;;;;;;;;;5103729;28;20399;-58
2021/12/28 07:30:32;;;;;;;3.90;1.40;;;;;;;;;;5101304;28;20019;-57
2021/12/28 07:32:57;;;;;;;2.17;0.70;;;;;;;;;;5103140;28;20039;-58
2021/12/28 07:35:22;;;;;;;4.03;1.10;;;;;;;;;;5100821;28;20016;-56
2021/12/28 07:37:48;;;;;;;2.53;1.30;;;;;;;;;;5103419;28;20437;-57
2021/12/28 07:40:13;;;;;;;2.92;1.00;;;;;;;;;;5105010;28;20027;-57
2021/12/28 07:42:40;;;;;;;2.95;0.85;;;;;;;;;;5106902;28;20054;-57
2021/12/28 07:45:06;;;;;;;4.50;1.30;;;;;;;;;;5104826;28;20031;-57
2021/12/28 07:47:31;;;;;;;2.65;1.52;;;;;;;;;;5095162;28;20495;-57
2021/12/28 07:49:57;;;;;;;3.70;1.27;;;;;;;;;;5098633;28;20059;-57
2021/12/28 07:52:22;;;;;;;3.77;0.80;;;;;;;;;;5106164;28;20495;-58
2021/12/28 07:54:47;;;;;;;4.07;1.10;;;;;;;;;;5105498;28;20436;-58
2021/12/28 07:57:12;;;;;;;3.78;1.00;;;;;;;;;;5104753;28;20027;-58
2021/12/28 07:59:38;;;;;;;2.75;0.90;;;;;;;;;;5097917;28;20036;-56
2021/12/28 08:02:03;;;;;;;2.58;0.98;;;;;;;;;;5096297;28;20047;-56
2021/12/28 08:04:28;;;;;;;3.65;1.00;;;;;;;;;;5087139;28;20043;-56
2021/12/28 08:06:55;;;;;;;3.13;1.02;;;;;;;;;;5075108;28;20032;-57
2021/12/28 08:09:20;;;;;;;5.18;1.92;;;;;;;;;;5089237;28;20040;-55
2021/12/28 08:11:45;;;;;;;4.20;1.05;;;;;;;;;;5093231;28;20032;-56
2021/12/28 08:14:10;;;;;;;4.05;1.17;;;;;;;;;;5093303;28;20028;-56
2021/12/28 08:16:35;;;;;;;2.03;0.80;;;;;;;;;;5093121;28;20032;-56
2021/12/28 08:19:04;;;;;;;4.47;1.42;;;;;;;;;;5074514;28;20023;-56
2021/12/28 08:21:29;;;;;;;4.53;1.00;;;;;;;;;;5093059;28;20035;-56
2021/12/28 08:23:56;;;;;;;4.25;1.10;;;;;;;;;;5089116;28;20119;-56
2021/12/28 08:26:22;;;;;;;2.83;1.10;;;;;;;;;;5093700;28;20112;-56
2021/12/28 08:28:47;;;;;;;3.67;1.50;;;;;;;;;;5093691;28;20048;-57
2021/12/28 08:31:12;;;;;;;4.30;0.98;;;;;;;;;;5092670;28;20548;-55
2021/12/28 08:33:37;;;;;;;3.35;1.35;;;;;;;;;;5095592;28;20032;-55
2021/12/28 08:36:03;;;;;;;2.80;0.98;;;;;;;;;;5093072;28;20097;-55
2021/12/28 08:38:28;;;;;;;7.22;1.23;;;;;;;;;;5093187;28;20032;-55
2021/12/28 08:40:54;;;;;;;2.22;1.00;;;;;;;;;;5095653;28;20028;-55
2021/12/28 08:43:19;;;;;;;3.08;1.23;;;;;;;;;;5093176;28;20130;-55
2021/12/28 08:45:44;;;;;;;7.45;1.20;;;;;;;;;;5093308;28;20396;-54
2021/12/28 08:48:13;;;;;;;4.25;1.52;;;;;;;;;;5092933;28;20024;-55
2021/12/28 08:50:39;;;;;;;3.15;1.35;;;;;;;;;;5097075;28;20035;-55
2021/12/28 08:53:04;;;;;;;3.88;1.38;;;;;;;;;;5102751;28;20028;-56
2021/12/28 08:55:29;;;;;;;2.67;1.15;;;;;;;;;;5095280;28;20111;-57
2021/12/28 08:57:55;;;;;;;1.75;1.00;;;;;;;;;;5091927;28;20036;-56
2021/12/28 09:00:24;;;;;;;4.43;0.93;;;;;;;;;;5092478;28;20032;-55
2021/12/28 09:02:51;;;;;;;2.20;0.90;;;;;;;;;;5092285;28;20046;-56
2021/12/28 09:05:16;;;;;;;4.15;1.23;;;;;;;;;;5092741;28;20114;-56
2021/12/28 09:07:41;;;;;;;2.92;0.95;;;;;;;;;;5096413;28;20091;-56
2021/12/28 09:10:07;;;;;;;2.15;1.30;;;;;;;;;;5092126;28;20180;-55
2021/12/28 09:12:32;;;;;;;4.22;1.20;;;;;;;;;;5091974;28;20039;-54
2021/12/28 09:14:58;;;;;;;2.92;1.15;;;;;;;;;;5092891;28;20032;-55
2021/12/28 09:17:23;;;;;;;3.55;1.50;;;;;;;;;;5092576;28;20329;-56
2021/12/28 09:19:48;;;;;;;6.97;1.17;;;;;;;;;;5089294;28;20032;-56
2021/12/28 09:22:14;;;;;;;4.35;0.88;;;;;;;;;;5092231;28;20119;-57
2021/12/28 09:24:39;;;;;;;2.55;1.00;;;;;;;;;;5092290;28;20028;-56
2021/12/28 09:27:05;;;;;;;2.90;0.90;;;;;;;;;;5092624;28;20043;-55
2021/12/28 09:29:31;;;;;;;6.65;1.17;;;;;;;;;;5091754;28;20095;-55
2021/12/28 09:31:58;;;;;;;3.75;1.15;;;;;;;;;;5092094;28;20058;-55
2021/12/28 09:34:24;;;;;;;2.97;0.80;;;;;;;;;;5094828;28;20024;-56
2021/12/28 09:36:49;;;;;;;2.95;1.00;;;;;;;;;;5093012;28;20020;-56
2021/12/28 09:39:14;;;;;;;2.67;0.90;;;;;;;;;;5091951;28;20040;-56
2021/12/28 09:41:39;;;;;;;2.80;1.00;;;;;;;;;;5091888;28;20032;-55
2021/12/28 09:44:05;;;;;;;2.53;0.60;;;;;;;;;;5092588;28;20024;-56
2021/12/28 09:46:30;;;;;;;1.35;0.68;;;;;;;;;;5093321;28;20101;-56
2021/12/28 09:48:55;;;;;;;3.08;0.98;;;;;;;;;;5092184;28;20086;-55
2021/12/28 09:51:20;;;;;;;1.73;0.80;;;;;;;;;;5091154;28;20040;-56
2021/12/28 09:53:46;;;;;;;4.03;0.98;;;;;;;;;;5091667;28;20058;-56
2021/12/28 09:56:12;;;;;;;2.45;0.90;;;;;;;;;;5089349;28;20024;-54
2021/12/28 09:58:38;;;;;;;3.17;0.90;;;;;;;;;;5090801;28;20024;-57
2021/12/28 10:01:04;;;;;;;3.83;0.95;;;;;;;;;;5088508;28;20051;-56
2021/12/28 10:03:30;;;;;;;3.17;1.08;;;;;;;;;;5088166;28;20040;-55
2021/12/28 10:05:55;;;;;;;3.67;0.85;;;;;;;;;;5089186;28;20462;-56
2021/12/28 10:08:24;;;;;;;1.85;0.80;;;;;;;;;;5088636;28;20072;-56
2021/12/28 10:10:49;;;;;;;1.48;0.70;;;;;;;;;;5088905;28;20012;-56
2021/12/28 10:13:21;;;;;;;2.20;0.90;;;;;;;;;;5088767;28;20411;-56
2021/12/28 10:15:47;;;;;;;2.13;0.68;;;;;;;;;;5098381;28;20138;-55
2021/12/28 10:18:13;;;;;;;1.33;0.70;;;;;;;;;;5088341;28;20107;-56
2021/12/28 10:20:40;;;;;;;3.75;1.20;;;;;;;;;;5094437;28;20088;-55
2021/12/28 10:23:07;;;;;;;2.13;0.63;;;;;;;;;;5111290;28;20018;-56
2021/12/28 10:25:34;;;;;;;1.63;0.70;;;;;;;;;;5111429;28;20039;-52
2021/12/28 10:28:04;;;;;;;2.50;0.90;;;;;;;;;;5096301;28;20068;-54
2021/12/28 10:30:48;;;;;;;4.03;1.20;;;;;;;;;;5090444;28;20044;-55
2021/12/28 10:33:16;;;;;;;1.75;0.55;;;;;;;;;;5094990;28;20575;-56
2021/12/28 10:35:53;;;;;;;1.92;0.52;;;;;;;;;;5096642;28;20410;-55
2021/12/28 10:38:20;;;;;;;3.13;0.80;;;;;;;;;;5093635;28;20034;-54
2021/12/28 10:40:47;;;;;;;3.10;0.75;;;;;;;;;;5097949;28;20073;-55
2021/12/28 10:43:13;;;;;;;1.73;0.50;;;;;;;;;;5097922;28;20115;-55
2021/12/28 10:45:44;;;;;;;1.98;0.82;;;;;;;;;;5101238;28;20047;-55
2021/12/28 10:48:12;;;;;;;3.65;0.90;;;;;;;;;;5099761;28;20032;-51
2021/12/28 10:51:01;;;;;;;1.55;0.65;;;;;;;;;;5093966;28;20040;-52
2021/12/28 10:53:37;;;;;;;2.33;1.08;;;;;;;;;;5028984;28;20049;-50
2021/12/28 10:56:04;;;;;;;2.17;0.68;;;;;;;;;;5029994;28;20095;-52
2021/12/28 10:58:41;;;;;;;2.85;0.68;;;;;;;;;;5029275;28;20034;-53
2021/12/28 11:01:08;;;;;;;3.10;0.50;;;;;;;;;;5024637;28;20036;-57
2021/12/28 11:03:35;;;;;;;1.83;0.60;;;;;;;;;;5025072;28;20026;-57
2021/12/28 11:06:07;;;;;;;3.97;0.80;;;;;;;;;;5024039;28;20040;-57
2021/12/28 11:08:32;;;;;;;1.60;0.40;;;;;;;;;;5024487;28;20038;-57
2021/12/28 11:11:00;;;;;;;2.13;0.60;;;;;;;;;;5026027;28;20363;-56
2021/12/28 11:13:27;;;;;;;1.38;0.47;;;;;;;;;;5031977;28;20037;-58
2021/12/28 11:15:52;;;;;;;1.42;0.57;;;;;;;;;;5030819;28;20040;-57
2021/12/28 11:18:20;;;;;;;7.60;0.50;;;;;;;;;;5030629;28;20038;-57
2021/12/28 11:20:45;;;;;;;3.03;0.82;;;;;;;;;;5028706;28;20049;-57
2021/12/28 11:23:12;;;;;;;1.85;0.38;;;;;;;;;;5024937;28;20044;-57
2021/12/28 11:25:37;;;;;;;6.10;0.60;;;;;;;;;;5028848;28;20115;-57
2021/12/28 11:28:19;;;;;;;2.00;0.60;;;;;;;;;;5029928;28;20149;-56
2021/12/28 11:31:02;;;;;;;2.95;0.43;;;;;;;;;;5067224;28;20036;-56
2021/12/28 11:33:40;;;;;;;2.03;0.50;;;;;;;;;;5091504;28;20040;-57
2021/12/28 11:36:06;;;;;;;3.40;0.88;;;;;;;;;;5083723;28;20036;-56
2021/12/28 11:38:32;;;;;;;1.05;0.30;;;;;;;;;;5056019;28;20040;-56
2021/12/28 11:40:57;;;;;;;2.60;0.82;;;;;;;;;;5088572;28;20035;-57
2021/12/28 11:43:22;;;;;;;0.55;0.30;;;;;;;;;;5090305;28;20154;-57
2021/12/28 11:45:48;;;;;;;0.68;0.40;;;;;;;;;;5073140;28;20044;-56
2021/12/28 11:48:13;;;;;;;0.77;0.25;;;;;;;;;;5091097;28;20476;-57
2021/12/28 11:50:39;;;;;;;0.45;0.22;;;;;;;;;;5092767;28;20476;-57
2021/12/28 11:53:04;;;;;;;1.13;0.30;;;;;;;;;;5094046;28;20020;-59
2021/12/28 11:55:29;;;;;;;0.77;0.40;;;;;;;;;;5093807;28;20155;-58
2021/12/28 11:57:54;;;;;;;4.15;0.60;;;;;;;;;;5094143;28;20062;-58
2021/12/28 12:00:22;;;;;;;0.93;0.30;;;;;;;;;;5094007;28;20502;-58
2021/12/28 12:02:49;;;;;;;2.22;0.68;;;;;;;;;;5092191;28;20039;-58
2021/12/28 12:05:23;;;;;;;1.25;0.70;;;;;;;;;;5093878;28;20035;-58
2021/12/28 12:08:18;;;;;;;0.98;0.28;;;;;;;;;;5094622;28;20020;-57
2021/12/28 12:10:44;;;;;;;3.83;0.65;;;;;;;;;;5009369;28;20046;-58
2021/12/28 12:13:19;;;;;;;1.20;0.50;;;;;;;;;;5001908;28;20370;-55
2021/12/28 12:15:47;;;;;;;0.63;0.43;;;;;;;;;;5007635;28;20108;-54
2021/12/28 12:18:15;;;;;;;1.63;0.50;;;;;;;;;;5006160;28;20034;-56
2021/12/28 12:20:44;;;;;;;1.08;0.40;;;;;;;;;;5004536;28;20054;-58
2021/12/28 12:23:14;;;;;;;2.35;0.50;;;;;;;;;;5004425;28;20022;-58
2021/12/28 12:25:42;;;;;;;0.50;0.22;;;;;;;;;;5005359;28;20435;-54
2021/12/28 12:28:09;;;;;;;0.73;0.25;;;;;;;;;;5001778;28;20054;-58
2021/12/28 12:30:34;;;;;;;1.08;0.40;;;;;;;;;;4998659;28;20042;-58
2021/12/28 12:33:07;;;;;;;4.53;0.50;;;;;;;;;;4999000;28;20382;-58
2021/12/28 12:35:35;;;;;;;2.90;0.40;;;;;;;;;;4998550;28;20467;-57
2021/12/28 12:38:02;;;;;;;1.17;0.25;;;;;;;;;;4996366;28;20034;-57
2021/12/28 12:40:46;;;;;;;0.68;0.50;;;;;;;;;;5006089;28;20371;-57
2021/12/28 12:43:12;;;;;;;0.47;0.30;;;;;;;;;;5000878;28;20122;-53
2021/12/28 12:45:52;;;;;;;1.05;0.30;;;;;;;;;;5000484;28;20044;-54
2021/12/28 12:48:53;;;;;;;1.33;0.30;;;;;;;;;;5081266;28;20028;-56
2021/12/28 12:51:21;;;;;;;1.98;0.20;;;;;;;;;;5081326;28;20114;-57
2021/12/28 12:53:46;;;;;;;0.47;0.20;;;;;;;;;;5083116;28;20603;-58
2021/12/28 12:56:16;;;;;;;1.55;0.47;;;;;;;;;;5082199;28;20119;-56
2021/12/28 12:58:45;;;;;;;1.58;0.20;;;;;;;;;;5081410;28;20064;-57
2021/12/28 13:01:26;;;;;;;0.38;0.20;;;;;;;;;;5079732;28;20054;-56
2021/12/28 13:03:52;;;;;;;0.22;0.20;;;;;;;;;;5082551;28;20028;-56
2021/12/28 13:06:36;;;;;;;1.65;0.43;;;;;;;;;;5082723;28;20032;-54
2021/12/28 13:09:05;;;;;;;0.47;0.32;;;;;;;;;;5064940;28;20036;-56
2021/12/28 13:11:31;;;;;;;0.57;0.40;;;;;;;;;;5077351;28;20092;-57
2021/12/28 13:13:56;;;;;;;0.47;0.30;;;;;;;;;;5079878;28;20472;-57
2021/12/28 13:16:21;;;;;;;0.52;0.30;;;;;;;;;;5078533;28;20048;-57
2021/12/28 13:18:47;;;;;;;0.68;0.30;;;;;;;;;;5076679;28;20032;-54
2021/12/28 13:21:18;;;;;;;1.05;0.70;;;;;;;;;;5092253;28;20404;-55
2021/12/28 13:24:03;;;;;;;0.55;0.45;;;;;;;;;;5102709;28;20046;-56
2021/12/28 13:26:28;;;;;;;0.65;0.40;;;;;;;;;;5102355;28;20024;-56
2021/12/28 13:29:00;;;;;;;0.30;0.30;;;;;;;;;;5102005;28;20050;-57
2021/12/28 13:31:25;;;;;;;0.73;0.20;;;;;;;;;;5101972;28;20509;-53
2021/12/28 13:33:56;;;;;;;1.63;0.40;;;;;;;;;;5085288;28;20040;-56
2021/12/28 13:36:23;;;;;;;0.60;0.30;;;;;;;;;;5101049;28;20028;-54
2021/12/28 13:38:48;;;;;;;1.00;0.40;;;;;;;;;;5092623;28;20500;-55
2021/12/28 13:41:14;;;;;;;2.95;0.80;;;;;;;;;;5090859;28;20028;-55
2021/12/28 13:43:40;;;;;;;1.95;0.45;;;;;;;;;;5093798;28;20032;-56
2021/12/28 13:46:07;;;;;;;3.05;0.50;;;;;;;;;;5091254;28;20038;-56
2021/12/28 13:48:39;;;;;;;0.98;0.32;;;;;;;;;;5091775;28;20036;-55
2021/12/28 13:51:07;;;;;;;1.17;0.50;;;;;;;;;;5091279;28;20039;-55
2021/12/28 13:53:34;;;;;;;1.40;0.30;;;;;;;;;;5090903;28;20048;-55
2021/12/28 13:56:04;;;;;;;10.05;0.68;;;;;;;;;;5091571;28;20032;-56
2021/12/28 13:58:31;;;;;;;1.67;0.40;;;;;;;;;;5090973;28;20138;-55
2021/12/28 14:01:02;;;;;;;2.30;0.50;;;;;;;;;;5095035;28;20643;-54
2021/12/28 14:03:28;;;;;;;1.73;0.50;;;;;;;;;;5093003;28;20495;-55
2021/12/28 14:05:54;;;;;;;3.22;0.77;;;;;;;;;;5099449;28;20031;-54
2021/12/28 14:08:20;;;;;;;3.65;1.23;;;;;;;;;;5091833;28;20538;-55
2021/12/28 14:10:49;;;;;;;1.63;0.40;;;;;;;;;;5094576;28;20488;-55
2021/12/28 14:13:16;;;;;;;3.28;1.00;;;;;;;;;;5090703;28;20035;-54
2021/12/28 14:16:00;;;;;;;2.25;0.68;;;;;;;;;;5090744;28;20092;-54
2021/12/28 14:18:28;;;;;;;3.20;0.50;;;;;;;;;;5090039;28;20028;-55
2021/12/28 14:20:54;;;;;;;4.65;0.98;;;;;;;;;;5090070;28;20047;-54
2021/12/28 14:23:35;;;;;;;4.05;1.05;;;;;;;;;;5091083;28;20024;-56
2021/12/28 14:26:07;;;;;;;4.55;1.65;;;;;;;;;;5089325;28;20027;-57
2021/12/28 14:28:32;;;;;;;2.20;1.02;;;;;;;;;;5083779;28;20092;-57
2021/12/28 14:31:16;;;;;;;2.80;0.80;;;;;;;;;;5093084;28;20032;-56
2021/12/28 14:33:58;;;;;;;2.90;0.80;;;;;;;;;;5093964;28;20043;-57
2021/12/28 14:36:30;;;;;;;2.75;0.50;;;;;;;;;;5074273;28;20036;-55
2021/12/28 14:39:05;;;;;;;2.92;0.90;;;;;;;;;;5089204;28;20044;-56
2021/12/28 14:41:30;;;;;;;5.00;1.40;;;;;;;;;;5087166;28;20446;-54